createdAt,value
2023-05-19T00:01:49.414Z,100430.91
2023-05-19T00:04:16.480Z,100427.41
2023-05-19T00:06:44.681Z,100420.22
2023-05-19T00:09:11.940Z,100424.81
2023-05-19T00:11:39.833Z,100429.09
2023-05-19T00:14:09.456Z,100426.97
2023-05-19T00:16:37.893Z,100420.25
2023-05-19T00:19:06.393Z,100420.66
2023-05-19T00:21:32.969Z,100422.22
2023-05-19T00:23:59.316Z,100410.94
2023-05-19T00:26:27.976Z,100414.97
2023-05-19T00:28:59.508Z,100404.47
2023-05-19T00:31:26.009Z,100409.88
2023-05-19T00:33:52.401Z,100407.78
2023-05-19T00:36:18.823Z,100399.28
2023-05-19T00:38:45.174Z,100399.28
2023-05-19T00:41:11.813Z,100403.28
2023-05-19T00:43:38.168Z,100406.00
2023-05-19T00:46:04.617Z,100395.94
2023-05-19T00:48:30.963Z,100391.69
2023-05-19T00:51:03.913Z,100400.97
2023-05-19T00:53:33.179Z,100387.16
2023-05-19T00:56:00.386Z,100383.44
2023-05-19T00:58:30.578Z,100384.03
2023-05-19T01:01:03.216Z,100382.25
2023-05-19T01:03:35.532Z,100383.69
2023-05-19T01:06:05.550Z,100383.56
2023-05-19T01:08:35.620Z,100385.72
2023-05-19T01:11:02.185Z,100384.44
2023-05-19T01:13:29.223Z,100387.25
2023-05-19T01:16:21.313Z,100387.72
2023-05-19T01:18:47.775Z,100390.50
2023-05-19T01:21:36.732Z,100387.47
2023-05-19T01:24:24.261Z,100381.50
2023-05-19T01:27:24.011Z,100396.59
2023-05-19T01:30:25.288Z,100388.38
2023-05-19T01:32:54.582Z,100385.38
2023-05-19T01:35:24.871Z,100396.16
2023-05-19T01:37:58.490Z,100388.97
2023-05-19T01:40:26.562Z,100394.66
2023-05-19T01:42:57.551Z,100397.66
2023-05-19T01:45:26.507Z,100401.91
2023-05-19T01:47:59.545Z,100396.63
2023-05-19T01:50:26.324Z,100395.19
2023-05-19T01:52:53.017Z,100394.78
2023-05-19T01:55:21.099Z,100395.69
2023-05-19T01:58:18.866Z,100400.53
2023-05-19T02:00:53.261Z,100397.63
2023-05-19T02:04:00.530Z,100405.00
2023-05-19T02:06:33.181Z,100397.94
2023-05-19T02:09:06.660Z,100402.16
2023-05-19T02:11:37.990Z,100393.06
2023-05-19T02:14:19.981Z,100394.00
2023-05-19T02:16:48.570Z,100391.44
2023-05-19T02:19:25.902Z,100396.53
2023-05-19T02:21:54.867Z,100389.44
2023-05-19T02:24:22.716Z,100385.25
2023-05-19T02:26:50.188Z,100382.00
2023-05-19T02:29:18.836Z,100387.94
2023-05-19T02:31:45.304Z,100386.78
2023-05-19T02:34:11.870Z,100377.69
2023-05-19T02:36:40.872Z,100385.16
2023-05-19T02:39:09.799Z,100380.25
2023-05-19T02:41:36.831Z,100385.16
2023-05-19T02:44:03.447Z,100386.69
2023-05-19T02:46:30.672Z,100382.72
2023-05-19T02:48:57.142Z,100374.34
2023-05-19T02:51:23.506Z,100383.56
2023-05-19T02:53:50.247Z,100381.03
2023-05-19T02:56:16.688Z,100379.88
2023-05-19T02:58:43.185Z,100381.88
2023-05-19T03:01:10.037Z,100386.50
2023-05-19T03:03:36.580Z,100383.88
2023-05-19T03:06:03.277Z,100386.97
2023-05-19T03:08:29.783Z,100384.03
2023-05-19T03:10:56.147Z,100387.72
2023-05-19T03:13:22.570Z,100393.06
2023-05-19T03:15:50.935Z,100380.88
2023-05-19T03:18:17.377Z,100382.44
2023-05-19T03:20:44.624Z,100378.56
2023-05-19T03:23:11.122Z,100383.53
2023-05-19T03:25:37.531Z,100378.13
2023-05-19T03:28:04.483Z,100378.47
2023-05-19T03:30:31.137Z,100376.84
2023-05-19T03:33:10.914Z,100381.44
2023-05-19T03:35:37.663Z,100380.44
2023-05-19T03:38:04.104Z,100377.22
2023-05-19T03:40:30.606Z,100372.63
2023-05-19T03:43:04.786Z,100383.94
2023-05-19T03:45:33.990Z,100381.56
2023-05-19T03:48:11.063Z,100382.03
2023-05-19T03:50:57.945Z,100388.56
2023-05-19T03:53:26.439Z,100386.63
2023-05-19T03:55:53.206Z,100382.97
2023-05-19T03:58:19.548Z,100377.34
2023-05-19T04:00:45.950Z,100388.44
2023-05-19T04:03:12.566Z,100393.50
2023-05-19T04:05:40.292Z,100385.22
2023-05-19T04:08:06.692Z,100390.28
2023-05-19T04:10:33.891Z,100382.81
2023-05-19T04:13:00.529Z,100388.94
2023-05-19T04:15:27.174Z,100382.97
2023-05-19T04:17:53.608Z,100393.50
2023-05-19T04:20:20.061Z,100391.81
2023-05-19T04:22:46.419Z,100388.56
2023-05-19T04:25:13.219Z,100400.78
2023-05-19T04:27:39.628Z,100395.94
2023-05-19T04:30:06.959Z,100403.28
2023-05-19T04:32:34.420Z,100396.63
2023-05-19T04:35:00.857Z,100399.41
2023-05-19T04:37:29.848Z,100404.94
2023-05-19T04:39:57.055Z,100401.06
2023-05-19T04:42:26.034Z,100403.59
2023-05-19T04:44:53.023Z,100414.28
2023-05-19T04:47:21.477Z,100407.56
2023-05-19T04:49:48.629Z,100404.63
2023-05-19T04:52:15.888Z,100411.31
2023-05-19T04:54:42.348Z,100410.47
2023-05-19T04:57:12.130Z,100407.34
2023-05-19T04:59:39.564Z,100404.22
2023-05-19T05:02:07.829Z,100402.84
2023-05-19T05:04:36.453Z,100409.31
2023-05-19T05:07:03.035Z,100399.63
2023-05-19T05:09:29.721Z,100406.94
2023-05-19T05:11:58.783Z,100406.94
2023-05-19T05:14:25.912Z,100395.88
2023-05-19T05:16:52.830Z,100395.53
2023-05-19T05:19:23.278Z,100398.25
2023-05-19T05:21:49.988Z,100395.53
2023-05-19T05:24:16.898Z,100397.66
2023-05-19T05:26:48.737Z,100401.94
2023-05-19T05:29:16.005Z,100401.06
2023-05-19T05:31:42.443Z,100387.31
2023-05-19T05:34:10.324Z,100396.13
2023-05-19T05:36:36.916Z,100392.34
2023-05-19T05:39:03.671Z,100402.06
2023-05-19T05:41:35.162Z,100390.56
2023-05-19T05:44:05.860Z,100394.50
2023-05-19T05:46:32.922Z,100394.63
2023-05-19T05:49:00.396Z,100393.13
2023-05-19T05:51:27.051Z,100391.63
2023-05-19T05:53:55.013Z,100388.03
2023-05-19T05:56:27.574Z,100389.06
2023-05-19T05:58:54.113Z,100396.78
2023-05-19T06:01:21.835Z,100387.22
2023-05-19T06:03:48.282Z,100387.56
2023-05-19T06:06:19.447Z,100395.97
2023-05-19T06:08:45.857Z,100394.72
2023-05-19T06:11:12.397Z,100397.19
2023-05-19T06:13:43.419Z,100389.81
2023-05-19T06:16:15.910Z,100386.38
2023-05-19T06:18:45.643Z,100389.88
2023-05-19T06:21:13.250Z,100393.34
2023-05-19T06:23:41.206Z,100390.69
2023-05-19T06:26:09.479Z,100400.84
2023-05-19T06:28:35.919Z,100389.19
2023-05-19T06:31:02.342Z,100388.97
2023-05-19T06:33:41.956Z,100384.13
2023-05-19T06:36:09.989Z,100385.16
2023-05-19T06:38:38.520Z,100374.47
2023-05-19T06:41:06.738Z,100385.16
2023-05-19T06:43:33.466Z,100378.72
2023-05-19T06:46:03.054Z,100379.00
2023-05-19T06:48:31.508Z,100382.19
2023-05-19T06:50:58.742Z,100374.41
2023-05-19T06:53:26.222Z,100373.66
2023-05-19T06:55:58.844Z,100375.53
2023-05-19T06:58:27.665Z,100370.53
2023-05-19T07:00:54.338Z,100367.47
2023-05-19T07:03:21.592Z,100375.38
2023-05-19T07:05:48.328Z,100367.84
2023-05-19T07:08:14.970Z,100368.84
2023-05-19T07:10:42.097Z,100366.97
2023-05-19T07:13:12.125Z,100364.78
2023-05-19T07:15:38.527Z,100368.31
2023-05-19T07:18:05.418Z,100354.00
2023-05-19T07:20:32.040Z,100358.53
2023-05-19T07:22:58.636Z,100355.03
2023-05-19T07:25:26.991Z,100350.13
2023-05-19T07:27:54.296Z,100353.88
2023-05-19T07:30:20.649Z,100356.81
2023-05-19T07:32:47.177Z,100346.06
2023-05-19T07:35:13.795Z,100350.56
2023-05-19T07:37:40.142Z,100342.00
2023-05-19T07:40:07.880Z,100344.66
2023-05-19T07:42:34.382Z,100345.41
2023-05-19T07:45:01.123Z,100349.00
2023-05-19T07:47:27.571Z,100347.69
2023-05-19T07:49:53.891Z,100338.50
2023-05-19T07:52:20.374Z,100346.13
2023-05-19T07:54:46.799Z,100350.69
2023-05-19T07:57:14.390Z,100347.88
2023-05-19T07:59:40.776Z,100344.63
2023-05-19T08:02:07.730Z,100344.16
2023-05-19T08:04:34.258Z,100337.50
2023-05-19T08:07:00.730Z,100338.09
2023-05-19T08:09:27.179Z,100340.00
2023-05-19T08:11:53.613Z,100336.50
2023-05-19T08:14:22.252Z,100335.91
2023-05-19T08:16:49.452Z,100340.34
2023-05-19T08:19:15.856Z,100336.53
2023-05-19T08:21:45.430Z,100326.00
2023-05-19T08:24:11.790Z,100328.34
2023-05-19T08:26:38.289Z,100338.19
2023-05-19T08:29:04.677Z,100328.47
2023-05-19T08:31:31.115Z,100326.69
2023-05-19T08:33:57.495Z,100316.00
2023-05-19T08:36:24.738Z,100317.31
2023-05-19T08:38:51.458Z,100313.31
2023-05-19T08:41:18.040Z,100318.25
2023-05-19T08:43:45.147Z,100312.84
2023-05-19T08:46:13.540Z,100312.75
2023-05-19T08:48:42.452Z,100305.88
2023-05-19T08:51:20.753Z,100307.75
2023-05-19T08:53:50.894Z,100300.28
2023-05-19T08:56:22.975Z,100300.28
2023-05-19T08:58:50.790Z,100289.63
2023-05-19T09:01:18.004Z,100292.19
2023-05-19T09:03:46.028Z,100281.41
2023-05-19T09:06:13.060Z,100274.81
2023-05-19T09:08:43.944Z,100279.63
2023-05-19T09:11:10.913Z,100288.03
2023-05-19T09:13:37.545Z,100269.94
2023-05-19T09:16:04.534Z,100273.31
2023-05-19T09:18:31.338Z,100270.91
2023-05-19T09:21:00.356Z,100270.88
2023-05-19T09:23:32.525Z,100262.91
2023-05-19T09:26:02.047Z,100263.19
2023-05-19T09:28:31.480Z,100264.16
2023-05-19T09:31:09.548Z,100258.53
2023-05-19T09:33:37.947Z,100258.19
2023-05-19T09:36:08.140Z,100254.25
2023-05-19T09:38:38.604Z,100253.22
2023-05-19T09:41:06.975Z,100254.72
2023-05-19T09:43:34.911Z,100242.75
2023-05-19T09:46:12.117Z,100247.09
2023-05-19T09:48:40.775Z,100242.28
2023-05-19T09:51:10.087Z,100250.53
2023-05-19T09:53:36.544Z,100246.25
2023-05-19T09:56:04.026Z,100253.38
2023-05-19T09:58:37.619Z,100236.31
2023-05-19T10:01:04.755Z,100234.41
2023-05-19T10:03:32.918Z,100232.03
2023-05-19T10:06:01.323Z,100233.25
2023-05-19T10:08:30.193Z,100237.03
2023-05-19T10:10:57.441Z,100231.19
2023-05-19T10:13:24.903Z,100233.44
2023-05-19T10:18:22.889Z,100216.41
2023-05-19T10:20:50.138Z,100226.84
2023-05-19T10:23:16.680Z,100218.81
2023-05-19T10:25:44.054Z,100218.78
2023-05-19T10:28:17.072Z,100220.97
2023-05-19T10:30:47.468Z,100213.31
2023-05-19T10:33:18.729Z,100205.50
2023-05-19T10:36:08.875Z,100206.13
2023-05-19T10:38:43.089Z,100204.19
2023-05-19T10:41:23.628Z,100196.56
2023-05-19T10:43:56.100Z,100187.53
2023-05-19T10:46:30.078Z,100189.91
2023-05-19T10:48:56.544Z,100196.44
2023-05-19T10:51:45.361Z,100184.09
2023-05-19T10:54:15.866Z,100181.09
2023-05-19T10:56:47.047Z,100176.25
2023-05-19T10:59:35.156Z,100170.75
2023-05-19T11:02:05.931Z,100160.66
2023-05-19T11:04:51.963Z,100180.41
2023-05-19T11:07:20.100Z,100181.75
2023-05-19T11:09:53.058Z,100180.44
2023-05-19T11:12:21.684Z,100170.88
2023-05-19T11:14:48.163Z,100173.56
2023-05-19T11:17:16.176Z,100181.47
2023-05-19T11:19:53.797Z,100173.59
2023-05-19T11:22:24.583Z,100168.72
2023-05-19T11:24:53.222Z,100177.09
2023-05-19T11:27:33.218Z,100172.06
2023-05-19T11:30:06.353Z,100178.28
2023-05-19T11:32:34.320Z,100170.69
2023-05-19T11:35:01.227Z,100165.69
2023-05-19T11:37:31.998Z,100165.00
2023-05-19T11:40:06.820Z,100164.00
2023-05-19T11:42:37.049Z,100148.22
2023-05-19T11:45:04.780Z,100161.81
2023-05-19T11:47:42.000Z,100156.28
2023-05-19T11:50:13.810Z,100153.47
2023-05-19T11:52:44.734Z,100159.53
2023-05-19T11:55:15.808Z,100155.34
2023-05-19T11:58:02.725Z,100146.56
2023-05-19T12:00:36.969Z,100138.72
2023-05-19T12:03:03.853Z,100135.06
2023-05-19T12:05:32.467Z,100138.19
2023-05-19T12:08:00.979Z,100130.41
2023-05-19T12:10:30.260Z,100120.88
2023-05-19T12:12:58.314Z,100126.53
2023-05-19T12:15:25.318Z,100119.31
2023-05-19T12:17:57.262Z,100116.69
2023-05-19T12:20:24.664Z,100117.06
2023-05-19T12:22:51.684Z,100130.81
2023-05-19T12:25:18.708Z,100118.91
2023-05-19T12:27:45.225Z,100126.00
2023-05-19T12:30:15.096Z,100115.09
2023-05-19T12:32:42.626Z,100115.22
2023-05-19T12:35:09.837Z,100114.81
2023-05-19T12:37:40.700Z,100117.03
2023-05-19T12:40:07.698Z,100117.50
2023-05-19T12:42:35.567Z,100117.41
2023-05-19T12:45:05.508Z,100119.13
2023-05-19T12:47:36.313Z,100113.97
2023-05-19T12:50:04.571Z,100118.88
2023-05-19T12:52:35.188Z,100114.75
2023-05-19T12:55:06.353Z,100114.22
2023-05-19T12:57:44.158Z,100118.03
2023-05-19T13:00:15.265Z,100105.78
2023-05-19T13:03:05.692Z,100103.81
2023-05-19T13:05:38.768Z,100106.50
2023-05-19T13:08:14.041Z,100101.13
2023-05-19T13:10:42.104Z,100093.19
2023-05-19T13:13:09.690Z,100093.94
2023-05-19T13:15:44.757Z,100093.81
2023-05-19T13:18:12.962Z,100090.47
2023-05-19T13:20:41.034Z,100092.75
2023-05-19T13:23:07.557Z,100092.81
2023-05-19T13:25:34.371Z,100085.97
2023-05-19T13:28:04.881Z,100080.19
2023-05-19T13:30:33.514Z,100076.31
2023-05-19T13:33:00.209Z,100079.47
2023-05-19T13:35:26.670Z,100071.25
2023-05-19T13:37:53.489Z,100068.78
2023-05-19T13:40:20.112Z,100070.25
2023-05-19T13:42:46.657Z,100066.63
2023-05-19T13:45:13.676Z,100062.63
2023-05-19T13:47:40.098Z,100063.88
2023-05-19T13:50:06.933Z,100067.75
2023-05-19T13:52:33.557Z,100062.44
2023-05-19T13:54:59.946Z,100064.63
2023-05-19T13:57:26.569Z,100060.09
2023-05-19T14:00:02.568Z,100068.81
2023-05-19T14:02:38.558Z,100066.31
2023-05-19T14:05:06.327Z,100062.16
2023-05-19T14:07:34.612Z,100062.66
2023-05-19T14:10:01.824Z,100065.03
2023-05-19T14:12:38.120Z,100060.47
2023-05-19T14:15:13.918Z,100058.13
2023-05-19T14:17:40.303Z,100060.47
2023-05-19T14:20:07.353Z,100060.13
2023-05-19T14:22:33.749Z,100053.25
2023-05-19T14:25:00.518Z,100050.41
2023-05-19T14:27:26.862Z,100047.91
2023-05-19T14:29:53.268Z,100046.72
2023-05-19T14:32:20.159Z,100056.28
2023-05-19T14:34:46.857Z,100057.78
2023-05-19T14:37:13.218Z,100063.47
2023-05-19T14:39:39.570Z,100051.59
2023-05-19T14:42:05.900Z,100057.16
2023-05-19T14:44:35.221Z,100055.44
2023-05-19T14:47:02.182Z,100057.78
2023-05-19T14:49:28.618Z,100056.44
2023-05-19T14:51:55.064Z,100041.88
2023-05-19T14:54:21.530Z,100047.56
2023-05-19T14:56:48.055Z,100049.75
2023-05-19T14:59:14.427Z,100039.69
2023-05-19T15:01:40.862Z,100046.22
2023-05-19T15:04:07.338Z,100043.19
2023-05-19T15:06:33.713Z,100036.84
2023-05-19T15:09:00.150Z,100038.34
2023-05-19T15:11:26.534Z,100043.03
2023-05-19T15:13:53.064Z,100034.31
2023-05-19T15:16:19.800Z,100052.56
2023-05-19T15:18:46.390Z,100038.84
2023-05-19T15:21:12.874Z,100038.34
2023-05-19T15:23:39.294Z,100034.31
2023-05-19T15:26:05.836Z,100032.63
2023-05-19T15:28:32.361Z,100041.50
2023-05-19T15:30:58.943Z,100040.13
2023-05-19T15:33:25.488Z,100055.38
2023-05-19T15:35:52.229Z,100045.81
2023-05-19T15:38:19.373Z,100037.63
2023-05-19T15:40:46.580Z,100035.28
2023-05-19T15:43:13.372Z,100039.97
2023-05-19T15:45:39.752Z,100032.47
2023-05-19T15:48:06.459Z,100041.81
2023-05-19T15:50:33.003Z,100036.59
2023-05-19T15:52:59.497Z,100045.94
2023-05-19T15:55:25.879Z,100045.28
2023-05-19T15:57:52.266Z,100039.25
2023-05-19T16:00:18.898Z,100042.06
2023-05-19T16:02:45.441Z,100042.06
2023-05-19T16:05:11.832Z,100041.06
2023-05-19T16:07:38.213Z,100037.56
2023-05-19T16:10:04.992Z,100037.19
2023-05-19T16:12:31.496Z,100028.47
2023-05-19T16:14:57.849Z,100029.13
2023-05-19T16:17:24.294Z,100025.41
2023-05-19T16:19:50.668Z,100020.72
2023-05-19T16:22:18.008Z,100028.25
2023-05-19T16:24:44.404Z,100021.22
2023-05-19T16:27:10.735Z,100018.03
2023-05-19T16:29:37.126Z,100025.50
2023-05-19T16:32:03.775Z,100019.34
2023-05-19T16:34:30.743Z,100028.16
2023-05-19T16:36:57.191Z,100017.78
2023-05-19T16:39:23.574Z,100021.13
2023-05-19T16:41:49.980Z,100014.09
2023-05-19T16:44:18.205Z,100024.81
2023-05-19T16:46:44.651Z,100017.28
2023-05-19T16:49:11.229Z,100018.63
2023-05-19T16:51:37.588Z,100016.59
